Time;durP1;ratioP1;P1;durP2;ratioP2;P2;SDS_P1;SDS_P2;PMS_P1;PMS_P2;Temp;Humidity;BMP_temperature;BMP_pressure;BME280_temperature;BME280_humidity;BME280_pressure;Samples;Min_cycle;Max_cycle;Signal;HPM_P1;HPM_P2
2021/08/03 00:02:06;;;;;;;6.50;2.80;;;;;;;12.95;80.10;101644.41;5051682;28;20044;-62
2021/08/03 00:04:51;;;;;;;;;;;;;;;12.95;79.81;101638.22;5052175;28;20116;-71
2021/08/03 00:07:19;;;;;;;5.15;2.60;;;;;;;12.92;79.55;101628.56;5051543;28;19943;-62
2021/08/03 00:09:46;;;;;;;3.28;2.20;;;;;;;12.90;79.66;101627.78;5052062;28;20017;-62
2021/08/03 00:12:14;;;;;;;5.78;2.72;;;;;;;12.91;78.85;101624.19;5051064;28;20383;-62
2021/08/03 00:14:51;;;;;;;5.07;2.58;;;;;;;12.88;78.98;101626.13;5051164;28;20389;-62
2021/08/03 00:17:20;;;;;;;4.15;2.20;;;;;;;12.86;78.93;101627.97;5055260;28;20040;-62
2021/08/03 00:19:45;;;;;;;4.03;2.33;;;;;;;12.87;79.09;101627.06;5055171;28;20052;-62
2021/08/03 00:22:12;;;;;;;7.90;2.53;;;;;;;12.83;79.20;101622.81;5054908;28;20122;-62
2021/08/03 00:24:38;;;;;;;3.53;2.13;;;;;;;12.77;79.19;101621.25;5054691;28;20021;-62
2021/08/03 00:27:05;;;;;;;4.95;2.30;;;;;;;12.75;79.28;101618.66;5054659;28;20119;-63
2021/08/03 00:29:31;;;;;;;6.93;2.60;;;;;;;12.69;79.99;101618.91;5054763;28;20021;-63
2021/08/03 00:31:59;;;;;;;6.88;2.67;;;;;;;12.65;79.98;101619.09;5054909;28;20183;-62
2021/08/03 00:34:24;;;;;;;6.65;2.70;;;;;;;12.61;79.69;101607.75;5054748;28;20031;-63
2021/08/03 00:36:50;;;;;;;5.60;2.70;;;;;;;12.60;79.69;101614.84;5054498;28;20033;-62
2021/08/03 00:39:15;;;;;;;5.32;2.25;;;;;;;12.61;79.90;101616.56;5055303;28;20104;-63
2021/08/03 00:41:45;;;;;;;4.28;2.28;;;;;;;12.62;79.71;101618.31;5054713;28;20386;-62
2021/08/03 00:44:11;;;;;;;7.40;2.72;;;;;;;12.60;80.20;101608.66;5054415;28;20032;-62
2021/08/03 00:46:36;;;;;;;5.10;2.55;;;;;;;12.60;80.35;101611.31;5054313;28;20086;-61
2021/08/03 00:49:03;;;;;;;7.05;2.72;;;;;;;12.57;80.57;101607.00;5054593;28;20505;-61
2021/08/03 00:51:28;;;;;;;3.42;2.30;;;;;;;12.55;80.51;101611.50;5054649;28;20112;-61
2021/08/03 00:53:54;;;;;;;5.15;2.70;;;;;;;12.54;80.61;101615.06;5054368;28;20104;-61
2021/08/03 00:56:19;;;;;;;6.53;2.85;;;;;;;12.50;80.02;101615.28;5053756;28;20053;-61
2021/08/03 00:58:45;;;;;;;5.05;2.53;;;;;;;12.44;80.35;101609.28;5054277;28;20052;-62
2021/08/03 01:01:11;;;;;;;4.70;2.60;;;;;;;12.40;80.54;101605.00;5054264;28;20125;-62
2021/08/03 01:03:37;;;;;;;4.38;2.53;;;;;;;12.38;80.95;101606.00;5054261;28;20033;-62
2021/08/03 01:06:12;;;;;;;9.48;2.88;;;;;;;12.35;81.04;101608.78;5053612;28;20025;-62
2021/08/03 01:08:52;;;;;;;5.47;2.58;;;;;;;12.33;81.19;101600.88;5034491;28;20029;-62
2021/08/03 01:11:21;;;;;;;4.70;2.42;;;;;;;12.34;81.08;101597.31;5034623;28;20112;-62
2021/08/03 01:14:26;;;;;;;7.82;2.70;;;;;;;12.35;80.86;101601.66;5048373;28;20013;-62
2021/08/03 01:16:58;;;;;;;6.15;2.40;;;;;;;12.33;81.17;101602.66;5053436;28;20047;-62
2021/08/03 01:19:33;;;;;;;5.88;2.47;;;;;;;12.31;81.25;101597.41;5053586;28;20025;-62
2021/08/03 01:22:11;;;;;;;6.63;2.70;;;;;;;12.30;81.69;101590.38;5054261;28;20033;-62
2021/08/03 01:24:49;;;;;;;6.55;2.50;;;;;;;12.29;81.49;101599.28;5049870;28;20191;-62
2021/08/03 01:27:17;;;;;;;5.28;2.75;;;;;;;12.29;81.53;101592.16;5053681;28;20040;-62
2021/08/03 01:29:44;;;;;;;5.18;2.53;;;;;;;12.31;81.36;101593.91;5053342;28;20025;-62
2021/08/03 01:32:11;;;;;;;7.05;2.58;;;;;;;12.33;81.53;101586.72;5053416;28;20064;-62
2021/08/03 01:34:39;;;;;;;3.97;2.50;;;;;;;12.35;81.45;101592.84;5053128;28;20051;-62
2021/08/03 01:37:06;;;;;;;5.38;2.63;;;;;;;12.34;81.29;101585.81;5053201;28;20112;-62
2021/08/03 01:39:38;;;;;;;4.50;2.75;;;;;;;12.34;80.98;101588.47;5054024;28;20045;-63
2021/08/03 01:42:07;;;;;;;6.90;2.70;;;;;;;12.35;81.13;101587.53;5052260;28;20426;-61
2021/08/03 01:44:34;;;;;;;5.03;2.60;;;;;;;12.34;80.86;101594.66;5053410;28;20508;-62
2021/08/03 01:47:01;;;;;;;8.70;2.78;;;;;;;12.36;80.73;101592.78;5053382;28;20036;-62
2021/08/03 01:49:27;;;;;;;6.03;2.65;;;;;;;12.35;80.63;101591.03;5053478;28;20029;-62
2021/08/03 01:51:54;;;;;;;7.05;2.80;;;;;;;12.33;80.81;101587.59;5052817;28;20056;-61
2021/08/03 01:54:20;;;;;;;7.30;2.85;;;;;;;12.30;80.82;101582.41;5053526;28;20029;-61
2021/08/03 01:56:46;;;;;;;16.08;3.13;;;;;;;12.30;80.41;101590.38;5052972;28;20032;-61
2021/08/03 01:59:13;;;;;;;6.57;2.70;;;;;;;12.30;80.52;101593.03;5052733;28;20040;-61
2021/08/03 02:01:39;;;;;;;7.32;2.90;;;;;;;12.35;80.34;101599.00;5052538;28;20548;-62
2021/08/03 02:04:05;;;;;;;6.95;3.00;;;;;;;12.38;80.28;101601.56;5053060;28;20036;-62
2021/08/03 02:06:31;;;;;;;6.13;2.75;;;;;;;12.38;80.75;101598.91;5052560;28;20095;-61
2021/08/03 02:08:58;;;;;;;7.45;3.38;;;;;;;12.36;81.13;101598.09;5053193;28;20061;-62
2021/08/03 02:11:30;;;;;;;4.78;2.70;;;;;;;12.39;80.79;101594.44;5052946;28;20562;-60
2021/08/03 02:13:56;;;;;;;4.63;2.72;;;;;;;12.44;80.44;101593.34;5052824;28;20103;-61
2021/08/03 02:16:22;;;;;;;7.47;2.70;;;;;;;12.45;80.58;101592.44;5052391;28;20524;-62
2021/08/03 02:18:47;;;;;;;5.13;2.72;;;;;;;12.43;80.99;101588.97;5053302;28;20036;-62
2021/08/03 02:21:18;;;;;;;5.35;2.53;;;;;;;12.45;80.82;101596.88;5053045;28;20021;-62
2021/08/03 02:23:43;;;;;;;6.57;2.70;;;;;;;12.43;80.64;101599.59;5052529;28;20119;-62
2021/08/03 02:26:13;;;;;;;6.63;2.90;;;;;;;12.44;81.16;101592.47;5052797;28;20111;-62
2021/08/03 02:28:39;;;;;;;5.97;3.15;;;;;;;12.45;80.81;101589.78;5052353;28;20025;-62
2021/08/03 02:31:11;;;;;;;5.07;2.85;;;;;;;12.40;80.96;101589.06;5052803;28;20498;-62
2021/08/03 02:33:40;;;;;;;5.35;2.78;;;;;;;12.38;81.46;101585.63;5052084;28;20036;-62
2021/08/03 02:36:12;;;;;;;4.95;2.80;;;;;;;12.38;81.19;101588.28;5052183;28;20029;-62
2021/08/03 02:38:41;;;;;;;7.25;2.97;;;;;;;12.32;81.32;101582.38;5032310;28;20032;-62
2021/08/03 02:41:07;;;;;;;6.65;3.13;;;;;;;12.27;81.62;101588.69;5032577;28;20036;-62
2021/08/03 02:43:36;;;;;;;7.50;3.50;;;;;;;12.24;81.51;101594.16;5039216;28;20033;-62
2021/08/03 02:46:04;;;;;;;5.82;3.30;;;;;;;12.24;81.45;101586.19;5052433;28;20466;-62
2021/08/03 02:48:32;;;;;;;8.05;3.60;;;;;;;12.20;81.49;101589.88;5052193;28;20040;-62
2021/08/03 02:50:58;;;;;;;7.57;3.72;;;;;;;12.16;81.81;101595.38;5052758;28;20020;-63
2021/08/03 02:53:30;;;;;;;5.93;3.53;;;;;;;12.12;81.82;101589.31;5052246;28;20040;-62
2021/08/03 02:55:59;;;;;;;7.50;3.65;;;;;;;12.05;81.85;101585.19;5052188;28;20108;-63
2021/08/03 02:58:36;;;;;;;7.20;3.40;;;;;;;11.99;82.26;101583.63;5047471;28;20049;-62
2021/08/03 03:01:02;;;;;;;8.43;3.33;;;;;;;11.94;82.73;101591.75;5051978;28;20505;-62
2021/08/03 03:03:30;;;;;;;8.07;3.63;;;;;;;11.88;83.05;101581.38;5052045;28;20525;-62
2021/08/03 03:06:03;;;;;;;10.10;3.80;;;;;;;11.84;83.43;101585.06;5051794;28;20102;-62
2021/08/03 03:08:30;;;;;;;7.78;3.88;;;;;;;11.85;83.00;101588.56;5051552;28;20037;-63
2021/08/03 03:10:59;;;;;;;10.15;4.30;;;;;;;11.78;83.43;101588.78;5052294;28;20024;-63
2021/08/03 03:13:42;;;;;;;7.68;3.78;;;;;;;11.76;83.38;101590.63;5052244;28;20053;-62
2021/08/03 03:16:08;;;;;;;9.05;4.13;;;;;;;11.73;83.44;101582.81;5052081;28;20059;-62
2021/08/03 03:18:34;;;;;;;9.93;4.35;;;;;;;11.69;83.50;101580.31;5051894;28;20082;-63
2021/08/03 03:21:02;;;;;;;6.53;4.43;;;;;;;11.66;83.36;101580.44;5051801;28;20413;-62
2021/08/03 03:23:32;;;;;;;8.40;4.20;;;;;;;11.63;83.82;101586.72;5051728;28;20095;-62
2021/08/03 03:25:58;;;;;;;7.22;4.70;;;;;;;11.58;83.98;101578.06;5052043;28;20029;-62
2021/08/03 03:28:27;;;;;;;10.73;4.80;;;;;;;11.55;84.02;101573.75;5052122;28;20532;-62
2021/08/03 03:30:52;;;;;;;7.53;4.00;;;;;;;11.57;84.13;101585.19;5051869;28;20102;-62
2021/08/03 03:33:18;;;;;;;6.90;4.38;;;;;;;11.59;83.82;101580.66;5051865;28;20474;-62
2021/08/03 03:35:47;;;;;;;8.98;4.82;;;;;;;11.60;83.77;101570.94;5051936;28;20083;-62
2021/08/03 03:38:15;;;;;;;9.63;4.72;;;;;;;11.54;84.01;101569.34;5051734;28;20098;-62
2021/08/03 03:40:41;;;;;;;8.65;4.90;;;;;;;11.52;84.03;101570.34;5051670;28;20475;-62
2021/08/03 03:43:07;;;;;;;8.55;4.88;;;;;;;11.47;83.99;101571.38;5051877;28;20176;-62
2021/08/03 03:45:34;;;;;;;12.90;4.78;;;;;;;11.44;84.08;101571.47;5051973;28;20036;-62
2021/08/03 03:48:02;;;;;;;10.45;4.90;;;;;;;11.41;84.25;101568.09;5051437;28;20371;-62
2021/08/03 03:50:53;;;;;;;7.63;4.75;;;;;;;11.39;84.28;101568.13;5052124;28;20033;-62
2021/08/03 03:53:23;;;;;;;12.02;5.22;;;;;;;11.38;84.52;101566.41;5036149;28;20037;-62
2021/08/03 03:55:57;;;;;;;8.57;5.00;;;;;;;11.38;85.01;101574.38;5036196;28;20025;-62
2021/08/03 03:58:23;;;;;;;10.05;5.43;;;;;;;11.37;84.96;101574.41;5054697;28;20091;-62
2021/08/03 04:00:49;;;;;;;10.18;4.97;;;;;;;11.37;84.98;101572.63;5055685;28;20375;-62
2021/08/03 04:03:20;;;;;;;10.18;4.75;;;;;;;11.38;84.83;101566.41;5054843;28;20498;-62
2021/08/03 04:05:47;;;;;;;9.98;4.70;;;;;;;11.38;84.29;101562.88;5055388;28;20119;-62
2021/08/03 04:08:12;;;;;;;11.32;5.43;;;;;;;11.36;84.83;101565.59;5055095;28;20074;-62
2021/08/03 04:10:39;;;;;;;8.50;4.80;;;;;;;11.37;84.60;101564.69;5055273;28;20033;-63
2021/08/03 04:13:05;;;;;;;9.13;5.20;;;;;;;11.37;84.53;101564.69;5055193;28;20025;-63
2021/08/03 04:15:34;;;;;;;12.23;5.25;;;;;;;11.39;85.02;101567.28;5055300;28;20033;-63
2021/08/03 04:17:59;;;;;;;8.15;5.22;;;;;;;11.42;84.59;101561.84;5054828;28;20033;-62
2021/08/03 04:20:25;;;;;;;9.35;5.80;;;;;;;11.44;84.44;101563.53;5055033;28;20040;-62
2021/08/03 04:22:51;;;;;;;10.80;4.95;;;;;;;11.47;84.39;101565.19;5054751;28;20025;-62
2021/08/03 04:25:17;;;;;;;8.30;5.72;;;;;;;11.49;84.09;101568.66;5055256;28;20048;-63
2021/08/03 04:27:43;;;;;;;13.25;5.95;;;;;;;11.52;84.10;101576.53;5054277;28;20120;-62
2021/08/03 04:30:10;;;;;;;9.82;5.53;;;;;;;11.60;83.61;101574.44;5052492;28;20152;-62
2021/08/03 04:32:35;;;;;;;10.63;5.93;;;;;;;11.68;83.48;101573.31;5052637;28;20017;-62
2021/08/03 04:35:01;;;;;;;11.23;6.10;;;;;;;11.71;83.46;101574.03;5054165;28;20386;-62
2021/08/03 04:37:26;;;;;;;9.30;5.82;;;;;;;11.80;83.15;101570.16;5034509;28;20029;-64
2021/08/03 04:39:51;;;;;;;8.55;5.82;;;;;;;11.81;83.38;101569.25;5055009;28;20025;-61
2021/08/03 04:42:17;;;;;;;11.75;6.60;;;;;;;11.82;83.47;101559.50;5055351;28;20501;-63
2021/08/03 04:44:42;;;;;;;13.23;6.97;;;;;;;11.82;83.37;101565.66;5053541;28;20108;-65
2021/08/03 04:47:07;;;;;;;13.68;6.97;;;;;;;11.86;83.32;101558.47;5054766;28;20356;-61
2021/08/03 04:49:33;;;;;;;10.15;6.63;;;;;;;11.90;83.24;101560.91;5054462;28;20381;-67
2021/08/03 04:51:59;;;;;;;9.07;5.63;;;;;;;11.97;82.88;101556.28;5054741;28;20025;-64
2021/08/03 04:54:25;;;;;;;12.70;6.78;;;;;;;12.00;82.93;101558.81;5054031;28;20029;-63
2021/08/03 04:56:50;;;;;;;11.48;6.85;;;;;;;12.03;82.42;101558.69;5054705;28;20033;-63
2021/08/03 04:59:16;;;;;;;13.88;7.00;;;;;;;12.06;82.83;101555.91;5052104;28;20456;-63
2021/08/03 05:01:41;;;;;;;11.65;6.75;;;;;;;12.08;82.65;101551.38;5053860;28;20021;-62
2021/08/03 05:04:06;;;;;;;10.88;6.30;;;;;;;12.11;82.56;101548.63;5054496;28;20363;-62
2021/08/03 05:06:32;;;;;;;11.60;6.90;;;;;;;12.17;82.88;101552.81;5052558;28;20434;-66
2021/08/03 05:08:57;;;;;;;10.00;5.70;;;;;;;12.22;82.22;101556.16;5046487;28;20026;-62
2021/08/03 05:11:22;;;;;;;10.10;6.15;;;;;;;12.28;82.41;101557.72;5034484;28;20536;-63
2021/08/03 05:13:48;;;;;;;9.27;5.85;;;;;;;12.34;82.38;101560.13;5034124;28;20037;-63
2021/08/03 05:16:13;;;;;;;11.63;6.70;;;;;;;12.40;82.19;101554.53;5038353;28;20064;-67
2021/08/03 05:18:38;;;;;;;12.50;6.57;;;;;;;12.48;82.24;101562.22;5054538;28;20029;-62
2021/08/03 05:21:04;;;;;;;10.18;5.88;;;;;;;12.58;81.80;101560.03;5054398;28;20551;-59
2021/08/03 05:23:29;;;;;;;9.88;5.88;;;;;;;12.68;81.32;101553.41;5054006;28;20367;-61
2021/08/03 05:25:54;;;;;;;12.45;6.07;;;;;;;12.74;81.52;101554.94;5054048;28;20065;-64
2021/08/03 05:28:20;;;;;;;11.50;6.07;;;;;;;12.82;80.51;101550.16;5052851;28;20108;-59
2021/08/03 05:30:47;;;;;;;9.25;5.40;;;;;;;12.88;79.44;101547.22;5053114;28;20032;-61
2021/08/03 05:33:13;;;;;;;10.18;5.85;;;;;;;12.97;79.78;101543.31;5053595;28;20017;-62
2021/08/03 05:35:38;;;;;;;9.82;5.57;;;;;;;13.09;79.07;101539.25;5048825;28;20040;-61
2021/08/03 05:38:05;;;;;;;9.25;5.15;;;;;;;13.15;78.98;101540.78;5043971;28;20033;-59
2021/08/03 05:40:31;;;;;;;9.52;4.72;;;;;;;13.22;78.35;101542.22;5051854;28;20159;-62
2021/08/03 05:42:56;;;;;;;9.73;4.38;;;;;;;13.25;76.66;101536.78;5052945;28;20100;-61
2021/08/03 05:45:23;;;;;;;6.82;3.97;;;;;;;13.32;76.16;101540.88;5047474;28;20032;-62
2021/08/03 05:47:49;;;;;;;7.88;4.00;;;;;;;13.40;76.74;101538.78;5053301;28;20035;-60
2021/08/03 05:50:14;;;;;;;6.28;3.90;;;;;;;13.49;76.45;101537.50;5053194;28;20025;-59
2021/08/03 05:52:39;;;;;;;8.25;3.90;;;;;;;13.59;76.06;101537.91;5052343;28;20033;-63
2021/08/03 05:55:05;;;;;;;9.25;3.70;;;;;;;13.64;75.33;101540.38;5053059;28;20028;-59
2021/08/03 05:57:30;;;;;;;6.30;3.53;;;;;;;13.71;75.58;101532.03;5053326;28;20112;-64
2021/08/03 05:59:56;;;;;;;8.38;3.30;;;;;;;13.76;75.45;101537.16;5052331;28;20040;-60
2021/08/03 06:02:21;;;;;;;7.45;3.30;;;;;;;13.84;75.89;101534.97;5052879;28;20075;-62
2021/08/03 06:04:47;;;;;;;8.90;3.50;;;;;;;13.89;75.30;101535.63;5053033;28;20372;-63
2021/08/03 06:07:14;;;;;;;10.25;3.55;;;;;;;13.96;74.73;101541.50;5052212;28;20029;-64
2021/08/03 06:09:42;;;;;;;7.28;2.95;;;;;;;14.07;73.86;101541.00;5053209;28;20059;-63
2021/08/03 06:12:09;;;;;;;4.10;2.70;;;;;;;14.19;71.30;101536.88;5053139;28;20024;-62
2021/08/03 06:14:42;;;;;;;4.55;2.55;;;;;;;14.22;71.18;101534.94;5052332;28;20028;-60
2021/08/03 06:17:11;;;;;;;7.47;2.20;;;;;;;14.29;71.04;101539.97;5053134;28;20039;-60
2021/08/03 06:19:48;;;;;;;4.85;2.22;;;;;;;14.44;69.39;101544.53;5052738;28;20079;-61
2021/08/03 06:22:14;;;;;;;5.60;2.60;;;;;;;14.49;69.28;101545.16;5052608;28;20021;-61
2021/08/03 06:24:41;;;;;;;4.90;2.47;;;;;;;14.53;70.30;101545.88;5052499;28;20044;-61
2021/08/03 06:27:18;;;;;;;5.95;2.42;;;;;;;14.58;70.30;101550.00;5034416;28;20460;-62
2021/08/03 06:29:44;;;;;;;6.05;2.15;;;;;;;14.68;68.94;101550.47;5051348;28;20021;-61
2021/08/03 06:32:11;;;;;;;3.28;2.00;;;;;;;14.78;68.44;101544.66;5050356;28;20028;-60
2021/08/03 06:34:39;;;;;;;4.68;2.10;;;;;;;14.88;67.96;101540.56;5049713;28;20546;-59
2021/08/03 06:37:04;;;;;;;3.47;1.92;;;;;;;14.94;67.90;101545.59;5041210;28;20071;-60
2021/08/03 06:39:30;;;;;;;5.03;1.95;;;;;;;15.09;67.26;101541.25;5047799;28;20056;-61
2021/08/03 06:42:00;;;;;;;4.57;1.90;;;;;;;15.10;67.35;101528.78;5047549;28;20076;-64
2021/08/03 06:44:34;;;;;;;5.57;2.30;;;;;;;15.13;68.46;101534.81;5047543;28;20534;-63
2021/08/03 06:46:59;;;;;;;5.47;2.08;;;;;;;15.18;68.09;101531.88;5047609;28;20047;-59
2021/08/03 06:49:30;;;;;;;4.28;2.00;;;;;;;15.29;67.92;101542.84;5048618;28;20025;-60
2021/08/03 06:51:56;;;;;;;3.78;1.90;;;;;;;15.38;67.18;101537.03;5047859;28;20102;-64
2021/08/03 06:54:27;;;;;;;4.10;2.00;;;;;;;15.36;66.12;101543.41;5046655;28;20443;-62
2021/08/03 06:57:08;;;;;;;3.33;2.13;;;;;;;15.30;67.92;101543.72;5048244;28;20025;-63
2021/08/03 06:59:46;;;;;;;4.95;1.90;;;;;;;15.35;67.61;101539.00;5047835;28;20045;-64
2021/08/03 07:02:16;;;;;;;3.22;1.85;;;;;;;15.53;66.88;101539.81;5047997;28;20150;-64
2021/08/03 07:04:47;;;;;;;3.40;1.85;;;;;;;15.76;67.36;101548.38;5047100;28;20054;-70
2021/08/03 07:07:13;;;;;;;3.55;2.10;;;;;;;15.93;67.38;101547.44;5039901;28;20032;-63
2021/08/03 07:09:43;;;;;;;4.75;2.10;;;;;;;16.14;65.47;101532.00;5044694;28;20124;-62
2021/08/03 07:12:12;;;;;;;4.93;1.95;;;;;;;16.27;66.80;101538.38;5045399;28;20032;-62
2021/08/03 07:14:38;;;;;;;4.07;1.70;;;;;;;16.27;65.06;101538.38;5047501;28;20033;-62
2021/08/03 07:17:05;;;;;;;3.97;2.05;;;;;;;16.27;64.64;101533.03;5047087;28;20733;-62
2021/08/03 07:19:32;;;;;;;4.15;2.05;;;;;;;16.36;65.51;101534.31;5047867;28;20113;-64
2021/08/03 07:21:58;;;;;;;5.10;2.00;;;;;;;16.35;64.86;101536.09;5045444;28;20252;-66
2021/08/03 07:24:25;;;;;;;4.88;2.05;;;;;;;16.41;64.82;101534.03;5043503;28;20017;-62
2021/08/03 07:26:50;;;;;;;3.55;1.80;;;;;;;16.41;66.07;101540.25;5051349;28;20053;-61
2021/08/03 07:29:15;;;;;;;5.28;2.00;;;;;;;16.38;65.39;101535.06;5052212;28;20044;-63
2021/08/03 07:31:44;;;;;;;4.63;1.98;;;;;;;16.36;66.32;101534.31;5051907;28;20343;-64
2021/08/03 07:34:10;;;;;;;3.55;2.00;;;;;;;16.40;66.34;101545.69;5052311;28;20024;-61
2021/08/03 07:36:39;;;;;;;3.65;1.80;;;;;;;16.45;67.04;101541.78;5051686;28;20025;-60
2021/08/03 07:39:06;;;;;;;4.25;2.28;;;;;;;16.47;67.69;101529.22;5050636;28;20048;-60
2021/08/03 07:41:33;;;;;;;2.80;2.10;;;;;;;16.47;66.44;101531.88;5051344;28;20040;-61
2021/08/03 07:43:59;;;;;;;4.38;2.10;;;;;;;16.53;67.18;101525.28;5051608;28;20371;-61
2021/08/03 07:46:24;;;;;;;5.10;2.00;;;;;;;16.68;66.38;101528.88;5049726;28;20143;-60
2021/08/03 07:48:50;;;;;;;6.70;2.20;;;;;;;16.70;67.29;101526.97;5051487;28;20040;-63
2021/08/03 07:51:19;;;;;;;4.03;1.90;;;;;;;16.78;66.89;101529.19;5050999;28;20017;-61
2021/08/03 07:53:49;;;;;;;5.85;1.88;;;;;;;16.85;65.42;101519.84;5050203;28;20055;-61
2021/08/03 07:56:15;;;;;;;3.00;1.77;;;;;;;17.05;65.88;101524.00;5050334;28;20099;-61
2021/08/03 07:58:40;;;;;;;2.88;1.88;;;;;;;17.29;64.39;101529.66;5051805;28;20049;-60
2021/08/03 08:01:06;;;;;;;4.40;1.90;;;;;;;17.49;63.52;101524.88;5049764;28;20032;-60
2021/08/03 08:03:32;;;;;;;3.40;1.80;;;;;;;17.70;62.11;101522.66;5051428;28;20461;-64
2021/08/03 08:05:58;;;;;;;4.45;1.85;;;;;;;17.87;62.69;101526.91;5050556;28;20064;-60
2021/08/03 08:08:24;;;;;;;3.80;1.70;;;;;;;17.94;63.18;101522.03;5048275;28;20432;-60
2021/08/03 08:10:49;;;;;;;5.75;1.92;;;;;;;18.21;61.65;101526.53;5049946;28;20041;-61
2021/08/03 08:13:14;;;;;;;4.20;1.77;;;;;;;18.42;59.52;101521.59;5050542;28;20040;-60
2021/08/03 08:15:41;;;;;;;7.15;1.88;;;;;;;18.43;60.67;101516.13;5049757;28;20086;-63
2021/08/03 08:18:08;;;;;;;1.67;1.40;;;;;;;18.47;60.39;101522.97;5047824;28;20093;-60
2021/08/03 08:20:35;;;;;;;6.35;2.53;;;;;;;18.57;58.17;101512.50;5050478;28;20063;-62
2021/08/03 08:23:01;;;;;;;5.50;2.42;;;;;;;18.42;59.16;101514.38;5049687;28;20451;-63
2021/08/03 08:25:27;;;;;;;6.35;2.00;;;;;;;18.46;59.31;101523.09;5029727;28;20151;-59
2021/08/03 08:27:52;;;;;;;5.03;2.13;;;;;;;18.51;58.98;101519.13;5046318;28;20416;-60
2021/08/03 08:30:17;;;;;;;5.45;1.90;;;;;;;18.58;56.08;101526.75;5049471;28;20035;-61
2021/08/03 08:32:43;;;;;;;3.85;1.67;;;;;;;18.71;55.73;101526.78;5050442;28;20025;-63
2021/08/03 08:35:09;;;;;;;8.77;2.80;;;;;;;18.76;54.65;101520.16;5031291;28;20106;-61
2021/08/03 08:37:35;;;;;;;6.72;1.88;;;;;;;18.90;55.57;101527.28;5046606;28;20043;-59
2021/08/03 08:40:00;;;;;;;5.15;2.30;;;;;;;18.92;57.06;101535.22;5050114;28;20112;-62
2021/08/03 08:42:26;;;;;;;6.10;2.40;;;;;;;18.99;57.92;101523.94;5049886;28;20032;-61
2021/08/03 08:44:52;;;;;;;3.67;1.85;;;;;;;19.06;55.77;101529.75;5049402;28;20029;-64
2021/08/03 08:47:17;;;;;;;6.47;2.17;;;;;;;18.82;56.32;101517.06;5049125;28;20037;-62
2021/08/03 08:49:46;;;;;;;4.03;1.67;;;;;;;18.86;57.77;101519.50;5049016;28;20052;-63
2021/08/03 08:52:13;;;;;;;4.00;1.70;;;;;;;18.91;56.35;101520.06;5049581;28;20532;-61
2021/08/03 08:54:39;;;;;;;4.05;1.50;;;;;;;18.94;57.04;101523.41;5053874;28;20471;-62
2021/08/03 08:57:04;;;;;;;5.65;1.67;;;;;;;18.80;57.22;101518.97;5052496;28;20100;-65
2021/08/03 08:59:31;;;;;;;3.28;1.50;;;;;;;18.83;58.10;101512.53;5052777;28;20367;-60
2021/08/03 09:01:57;;;;;;;6.07;1.70;;;;;;;19.34;58.00;101517.06;5054044;28;20040;-60
2021/08/03 09:04:26;;;;;;;4.00;1.60;;;;;;;21.14;51.25;101507.28;5053693;28;20474;-62
2021/08/03 09:07:05;;;;;;;5.22;1.60;;;;;;;22.88;48.41;101508.28;5053684;28;20044;-62
2021/08/03 09:09:42;;;;;;;4.57;1.42;;;;;;;23.83;44.74;101506.25;5035915;28;20112;-62
2021/08/03 09:12:07;;;;;;;5.53;1.83;;;;;;;24.13;44.54;101515.31;5053297;28;20021;-61
2021/08/03 09:14:35;;;;;;;6.47;1.83;;;;;;;24.01;43.44;101511.84;5053775;28;20506;-61
2021/08/03 09:17:01;;;;;;;2.25;1.35;;;;;;;23.61;43.63;101515.47;5053619;28;20036;-63
2021/08/03 09:19:37;;;;;;;5.78;1.70;;;;;;;23.63;42.54;101513.47;5053344;28;20033;-61
2021/08/03 09:22:15;;;;;;;3.03;1.60;;;;;;;24.62;42.29;101515.28;5052901;28;20060;-62
2021/08/03 09:24:41;;;;;;;3.17;1.50;;;;;;;24.66;41.95;101515.88;5053450;28;20021;-61
2021/08/03 09:27:07;;;;;;;4.15;1.58;;;;;;;23.31;43.39;101514.50;5053380;28;20021;-61
2021/08/03 09:29:43;;;;;;;2.92;1.60;;;;;;;22.73;46.09;101506.91;5052876;28;20593;-61
2021/08/03 09:32:09;;;;;;;3.70;1.38;;;;;;;24.26;42.33;101506.91;5053429;28;20039;-61
2021/08/03 09:34:34;;;;;;;3.22;1.60;;;;;;;26.12;38.98;101502.69;5053000;28;20036;-60
2021/08/03 09:36:59;;;;;;;3.95;1.75;;;;;;;26.08;37.41;101502.16;5053146;28;20037;-61
2021/08/03 09:39:42;;;;;;;5.57;1.83;;;;;;;26.71;36.90;101503.00;5052815;28;20075;-61
2021/08/03 09:42:18;;;;;;;3.50;1.67;;;;;;;26.85;37.34;101507.03;5052458;28;20040;-62
2021/08/03 09:44:54;;;;;;;4.40;1.77;;;;;;;26.05;37.38;101505.19;5052706;28;20167;-61
2021/08/03 09:47:21;;;;;;;3.85;1.98;;;;;;;25.57;38.76;101503.59;5053135;28;20021;-62
2021/08/03 09:49:49;;;;;;;3.33;1.50;;;;;;;25.77;37.19;101507.03;5052017;28;20021;-61
2021/08/03 09:52:16;;;;;;;4.75;1.77;;;;;;;25.77;37.58;101507.91;5050863;28;20123;-62
2021/08/03 09:54:42;;;;;;;4.40;1.90;;;;;;;26.12;36.92;101494.56;5053025;28;20017;-61
2021/08/03 09:57:25;;;;;;;2.83;1.77;;;;;;;26.03;37.02;101499.00;5052889;28;20031;-61
2021/08/03 09:59:52;;;;;;;3.95;2.00;;;;;;;24.88;38.33;101501.13;5052498;28;20094;-61
2021/08/03 10:02:21;;;;;;;3.40;1.80;;;;;;;24.01;42.13;101501.03;5052373;28;20025;-62
2021/08/03 10:04:48;;;;;;;4.15;1.92;;;;;;;23.55;41.97;101510.59;5053123;28;20036;-61
2021/08/03 10:07:14;;;;;;;4.47;1.98;;;;;;;24.35;40.13;101508.75;5034383;28;20502;-61
2021/08/03 10:09:41;;;;;;;3.70;2.15;;;;;;;25.78;37.55;101498.78;5052897;28;20029;-61
2021/08/03 10:12:07;;;;;;;7.07;1.88;;;;;;;26.80;35.94;101503.94;5052178;28;20032;-61
2021/08/03 10:14:32;;;;;;;4.47;1.90;;;;;;;25.59;35.16;101507.00;5052128;28;20020;-61
2021/08/03 10:16:57;;;;;;;3.80;1.70;;;;;;;24.91;38.70;101492.75;5034720;28;20463;-62
2021/08/03 10:19:28;;;;;;;6.32;2.10;;;;;;;24.66;39.07;101513.16;5052513;28;20033;-61
2021/08/03 10:22:08;;;;;;;3.72;2.08;;;;;;;25.35;36.22;101498.41;5052299;28;20471;-61
2021/08/03 10:24:36;;;;;;;4.25;2.10;;;;;;;25.15;36.56;101497.63;5051760;28;20037;-62
2021/08/03 10:27:01;;;;;;;5.47;2.40;;;;;;;24.66;36.49;101510.47;5032174;28;20061;-60
2021/08/03 10:29:27;;;;;;;4.23;2.03;;;;;;;23.80;40.14;101502.97;5032171;28;20502;-61
2021/08/03 10:31:53;;;;;;;4.13;2.20;;;;;;;24.25;41.07;101505.19;5032138;28;20487;-61
2021/08/03 10:34:43;;;;;;;4.10;2.30;;;;;;;24.82;38.73;101512.56;5049930;28;20107;-61
2021/08/03 10:37:10;;;;;;;3.78;2.20;;;;;;;24.02;39.31;101508.16;5051982;28;20045;-61
2021/08/03 10:39:51;;;;;;;3.67;2.10;;;;;;;23.19;40.47;101496.66;5052220;28;20024;-62
2021/08/03 10:42:18;;;;;;;4.90;2.22;;;;;;;22.26;44.08;101502.72;5052024;28;20090;-74
2021/08/03 10:44:44;;;;;;;4.50;2.20;;;;;;;21.62;46.82;101495.41;5051333;28;20029;-62
2021/08/03 10:47:36;;;;;;;5.72;2.28;;;;;;;21.25;47.02;101504.59;5052001;28;20124;-61
2021/08/03 10:50:06;;;;;;;;;;;;;;;20.61;49.59;101499.69;5052337;28;20052;-61
2021/08/03 10:52:44;;;;;;;7.03;2.30;;;;;;;20.29;49.97;101506.56;5051949;28;19919;-62
2021/08/03 10:55:38;;;;;;;5.32;2.33;;;;;;;19.94;51.61;101507.38;5051249;28;20102;-61
2021/08/03 10:58:13;;;;;;;5.40;2.38;;;;;;;19.51;53.22;101510.47;5051878;28;20029;-62
2021/08/03 11:00:53;;;;;;;5.97;2.42;;;;;;;19.22;54.21;101510.75;5051110;28;20072;-61
2021/08/03 11:03:30;;;;;;;5.07;2.22;;;;;;;19.02;54.77;101503.25;5051836;28;20029;-61
2021/08/03 11:06:16;;;;;;;5.88;2.40;;;;;;;18.86;55.33;101500.72;5050501;28;20037;-61
2021/08/03 11:08:45;;;;;;;8.50;2.63;;;;;;;18.64;56.08;101502.19;5051134;28;20505;-61
2021/08/03 11:11:18;;;;;;;6.03;2.30;;;;;;;18.73;55.92;101495.34;5051695;28;20490;-60
2021/08/03 11:13:48;;;;;;;6.32;2.70;;;;;;;18.77;57.03;101497.72;5051160;28;20078;-61
2021/08/03 11:16:19;;;;;;;6.50;2.30;;;;;;;18.78;55.86;101503.94;5050452;28;20029;-61
2021/08/03 11:18:47;;;;;;;4.38;2.38;;;;;;;18.76;58.18;101501.38;5051083;28;20029;-60
2021/08/03 11:21:17;;;;;;;5.75;2.40;;;;;;;18.67;55.48;101493.97;5050981;28;20475;-61
2021/08/03 11:24:04;;;;;;;5.70;2.22;;;;;;;18.47;56.52;101498.00;5051326;28;20029;-64
2021/08/03 11:26:33;;;;;;;5.78;2.28;;;;;;;18.47;56.66;101503.38;5050400;28;20040;-60
2021/08/03 11:29:01;;;;;;;6.05;2.47;;;;;;;18.38;56.93;101495.94;5050302;28;20497;-61
2021/08/03 11:31:56;;;;;;;5.95;2.40;;;;;;;18.26;56.93;101505.66;5050847;28;20021;-60